Time;durP1;ratioP1;P1;durP2;ratioP2;P2;SDS_P1;SDS_P2;PMS_P1;PMS_P2;Temp;Humidity;BMP_temperature;BMP_pressure;BME280_temperature;BME280_humidity;BME280_pressure;Samples;Min_cycle;Max_cycle;Signal;HPM_P1;HPM_P2
2022/03/18 00:02:12;;;;;;;91.17;63.33;;;5.10;99.90;;;;;;4994985;28;20041;-80
2022/03/18 00:04:38;;;;;;;86.83;60.53;;;5.00;99.90;;;;;;4995413;28;20118;-81
2022/03/18 00:07:04;;;;;;;91.70;61.20;;;5.00;99.90;;;;;;4994747;28;20026;-80
2022/03/18 00:09:30;;;;;;;91.97;62.30;;;5.00;99.90;;;;;;4994456;28;20505;-80
2022/03/18 00:11:56;;;;;;;94.50;63.47;;;5.00;99.90;;;;;;4994457;28;20037;-80
2022/03/18 00:14:21;;;;;;;87.50;60.20;;;5.00;99.90;;;;;;4994037;28;20086;-80
2022/03/18 00:16:47;;;;;;;92.40;61.97;;;4.90;99.90;;;;;;4995225;28;20117;-80
2022/03/18 00:19:13;;;;;;;90.27;61.87;;;4.90;99.90;;;;;;4995216;28;20022;-80
2022/03/18 00:21:39;;;;;;;92.23;61.80;;;4.90;99.90;;;;;;4995161;28;20022;-81
2022/03/18 00:24:06;;;;;;;92.33;62.70;;;4.80;99.90;;;;;;4995486;28;20273;-81
2022/03/18 00:26:31;;;;;;;93.30;61.17;;;4.80;99.90;;;;;;4995124;28;20027;-81
2022/03/18 00:28:58;;;;;;;97.90;63.77;;;4.80;99.90;;;;;;4993922;28;20036;-81
2022/03/18 00:31:23;;;;;;;93.23;62.30;;;4.70;99.90;;;;;;4994749;28;20062;-80
2022/03/18 00:33:49;;;;;;;96.17;63.03;;;4.70;99.90;;;;;;4994913;28;20054;-80
2022/03/18 00:36:14;;;;;;;100.53;64.30;;;4.70;99.90;;;;;;4994679;28;20023;-80
2022/03/18 00:38:40;;;;;;;97.37;63.43;;;4.70;99.90;;;;;;4994903;28;20463;-80
2022/03/18 00:41:06;;;;;;;93.63;64.57;;;4.60;99.90;;;;;;4994505;28;20038;-80
2022/03/18 00:43:31;;;;;;;90.93;60.03;;;4.60;99.90;;;;;;4977500;28;20064;-80
2022/03/18 00:45:57;;;;;;;97.47;63.53;;;4.60;99.90;;;;;;4993623;28;20030;-81
2022/03/18 00:53:52;;;;;;;95.20;61.60;;;4.40;99.90;;;;;;4998864;28;20550;-81
2022/03/18 00:56:18;;;;;;;96.93;64.13;;;4.40;99.90;;;;;;4998847;28;20030;-81
2022/03/18 00:58:43;;;;;;;97.57;64.30;;;4.40;99.90;;;;;;4998841;28;20511;-81
2022/03/18 01:01:09;;;;;;;90.00;62.13;;;4.30;99.90;;;;;;4998750;28;20090;-80
2022/03/18 01:03:35;;;;;;;92.10;62.53;;;4.30;99.90;;;;;;4996021;28;20042;-80
2022/03/18 01:06:00;;;;;;;95.23;63.73;;;4.20;99.90;;;;;;4997341;28;20030;-80
2022/03/18 01:08:26;;;;;;;97.00;64.90;;;4.20;99.90;;;;;;4997178;28;20060;-80
2022/03/18 01:10:53;;;;;;;102.13;65.07;;;4.20;99.90;;;;;;4997389;28;20269;-81
2022/03/18 01:13:20;;;;;;;101.00;63.90;;;4.20;99.90;;;;;;4996752;28;20077;-81
2022/03/18 01:15:45;;;;;;;103.30;67.27;;;4.10;99.90;;;;;;4997595;28;20035;-81
2022/03/18 01:18:11;;;;;;;103.13;67.23;;;4.20;99.90;;;;;;4997530;28;20050;-81
2022/03/18 01:20:37;;;;;;;99.90;65.47;;;4.20;99.90;;;;;;4997311;28;20066;-81
2022/03/18 01:23:06;;;;;;;104.10;67.07;;;4.10;99.90;;;;;;4997573;28;20040;-80
2022/03/18 01:25:35;;;;;;;103.00;66.97;;;4.20;99.90;;;;;;4997258;28;20029;-80
2022/03/18 01:28:04;;;;;;;105.87;67.30;;;4.20;99.90;;;;;;4997030;28;20081;-80
2022/03/18 01:30:30;;;;;;;99.73;65.43;;;4.20;99.90;;;;;;4997019;28;20089;-80
2022/03/18 01:32:57;;;;;;;100.90;64.87;;;4.20;99.90;;;;;;4998286;28;20094;-80
2022/03/18 01:35:22;;;;;;;99.73;66.40;;;4.20;99.90;;;;;;4998665;28;20110;-80
2022/03/18 01:37:48;;;;;;;107.90;66.60;;;4.20;99.90;;;;;;4997339;28;20060;-80
2022/03/18 01:40:13;;;;;;;98.03;65.07;;;4.20;99.90;;;;;;4997188;28;20034;-81
2022/03/18 01:42:39;;;;;;;106.53;68.50;;;4.20;99.90;;;;;;4996524;28;20085;-80
2022/03/18 01:45:06;;;;;;;102.47;65.77;;;4.30;99.90;;;;;;4979168;28;20041;-80
2022/03/18 01:47:32;;;;;;;98.00;63.23;;;4.30;99.90;;;;;;4996148;28;20057;-80
2022/03/18 01:49:58;;;;;;;100.93;65.63;;;4.30;99.90;;;;;;4996633;28;20030;-80
2022/03/18 01:52:24;;;;;;;99.17;64.00;;;4.30;99.90;;;;;;4979509;28;20061;-80
2022/03/18 01:54:51;;;;;;;96.83;62.33;;;4.30;99.90;;;;;;4998118;28;20032;-80
2022/03/18 01:57:22;;;;;;;95.43;62.73;;;4.30;99.90;;;;;;4980189;28;20058;-81
2022/03/18 01:59:49;;;;;;;100.70;65.90;;;4.30;99.90;;;;;;4980737;28;20057;-80
2022/03/18 02:02:15;;;;;;;106.73;66.60;;;4.30;99.90;;;;;;4997613;28;20042;-81
2022/03/18 02:04:45;;;;;;;98.23;63.30;;;4.30;99.90;;;;;;4998431;28;20027;-80
2022/03/18 02:07:11;;;;;;;96.77;63.90;;;4.30;99.90;;;;;;4998791;28;20045;-80
2022/03/18 02:09:38;;;;;;;101.67;66.10;;;4.30;99.90;;;;;;4979190;28;20309;-80
2022/03/18 02:12:05;;;;;;;96.33;64.30;;;4.30;99.90;;;;;;4994739;28;20093;-80
2022/03/18 02:14:35;;;;;;;99.00;64.43;;;4.30;99.90;;;;;;4993769;28;20117;-80
2022/03/18 02:17:03;;;;;;;96.40;63.53;;;4.30;99.90;;;;;;4993369;28;20471;-80
2022/03/18 02:19:29;;;;;;;94.17;63.37;;;4.30;99.90;;;;;;4994194;28;20038;-80
2022/03/18 02:21:56;;;;;;;97.07;64.47;;;4.30;99.90;;;;;;4994910;28;20031;-80
2022/03/18 02:24:22;;;;;;;98.57;63.37;;;4.30;99.90;;;;;;4992811;28;20052;-80
2022/03/18 02:26:49;;;;;;;100.20;65.17;;;4.30;99.90;;;;;;4995554;28;20476;-80
2022/03/18 02:29:17;;;;;;;96.93;64.37;;;4.30;99.90;;;;;;4994960;28;20102;-81
2022/03/18 02:31:43;;;;;;;95.73;65.63;;;4.30;99.90;;;;;;4996033;28;20080;-81
2022/03/18 02:34:09;;;;;;;94.73;63.30;;;4.30;99.90;;;;;;4978771;28;20056;-80
2022/03/18 02:36:34;;;;;;;92.27;62.77;;;4.30;99.90;;;;;;4996602;28;20038;-80
2022/03/18 02:39:00;;;;;;;94.87;63.40;;;4.30;99.90;;;;;;4996145;28;20105;-80
2022/03/18 02:41:25;;;;;;;96.63;63.90;;;4.30;99.90;;;;;;4995603;28;20031;-81
2022/03/18 02:43:51;;;;;;;98.97;63.07;;;4.30;99.90;;;;;;4994110;28;20054;-80
2022/03/18 02:46:17;;;;;;;96.90;63.03;;;4.30;99.90;;;;;;4994649;28;20438;-81
2022/03/18 02:48:42;;;;;;;95.50;63.00;;;4.30;99.90;;;;;;4993910;28;20733;-81
2022/03/18 02:51:08;;;;;;;94.83;62.13;;;4.30;99.90;;;;;;4977156;28;20041;-81
2022/03/18 02:53:35;;;;;;;96.93;62.23;;;4.30;99.90;;;;;;4994963;28;20026;-81
2022/03/18 02:56:03;;;;;;;94.73;62.60;;;4.30;99.90;;;;;;4977818;28;20026;-81
2022/03/18 02:58:29;;;;;;;97.10;62.17;;;4.30;99.90;;;;;;4994890;28;20034;-81
2022/03/18 03:00:55;;;;;;;95.30;60.80;;;4.30;99.90;;;;;;4994469;28;20092;-81
2022/03/18 03:03:20;;;;;;;93.07;61.10;;;4.20;99.90;;;;;;4993283;28;20041;-81
2022/03/18 03:08:31;;;;;;;91.70;61.07;;;4.20;99.90;;;;;;4994567;28;20053;-81
2022/03/18 03:10:57;;;;;;;94.87;63.83;;;4.20;99.90;;;;;;4994503;28;20117;-81
2022/03/18 03:13:23;;;;;;;94.03;61.47;;;4.10;99.90;;;;;;4992964;28;20057;-81
2022/03/18 03:15:49;;;;;;;99.33;64.57;;;4.10;99.90;;;;;;4994070;28;20030;-80
2022/03/18 03:18:15;;;;;;;92.93;61.17;;;4.10;99.90;;;;;;4993468;28;20405;-81
2022/03/18 03:20:41;;;;;;;95.60;64.23;;;4.10;99.90;;;;;;4993471;28;20030;-81
2022/03/18 03:23:06;;;;;;;95.80;62.87;;;4.00;99.90;;;;;;4976459;28;20027;-81
2022/03/18 03:25:32;;;;;;;98.17;63.87;;;4.00;99.90;;;;;;4994111;28;20030;-80
2022/03/18 03:27:57;;;;;;;95.87;64.33;;;4.00;99.90;;;;;;4993694;28;20037;-81
2022/03/18 03:30:23;;;;;;;97.23;63.17;;;4.00;99.90;;;;;;4976422;28;20057;-81
2022/03/18 03:32:50;;;;;;;92.77;61.00;;;4.00;99.90;;;;;;4993222;28;20109;-80
2022/03/18 03:35:15;;;;;;;98.03;62.97;;;4.00;99.90;;;;;;4993439;28;20468;-81
2022/03/18 03:37:42;;;;;;;93.97;64.70;;;4.00;99.90;;;;;;4993629;28;20046;-81
2022/03/18 03:40:09;;;;;;;97.13;63.47;;;4.00;99.90;;;;;;4993081;28;20124;-81
2022/03/18 03:42:34;;;;;;;94.87;63.90;;;4.10;99.90;;;;;;4992495;28;20443;-81
2022/03/18 03:45:00;;;;;;;97.90;63.20;;;4.10;99.90;;;;;;4993465;28;20062;-81
2022/03/18 03:47:26;;;;;;;95.67;61.77;;;4.10;99.90;;;;;;4976281;28;20282;-81
2022/03/18 03:49:51;;;;;;;91.47;60.43;;;4.10;99.90;;;;;;4992786;28;20030;-81
2022/03/18 03:52:17;;;;;;;97.43;61.80;;;4.10;99.90;;;;;;4992607;28;20054;-81
2022/03/18 03:54:42;;;;;;;91.13;59.03;;;4.10;99.90;;;;;;4993053;28;20023;-81
2022/03/18 03:57:08;;;;;;;90.93;60.97;;;4.10;99.90;;;;;;4992718;28;20027;-81
2022/03/18 03:59:35;;;;;;;91.87;58.57;;;4.10;99.90;;;;;;4993851;28;20103;-81
2022/03/18 04:02:02;;;;;;;90.97;59.17;;;4.10;99.90;;;;;;4993289;28;20137;-80
2022/03/18 04:04:28;;;;;;;87.37;57.83;;;4.10;99.90;;;;;;4993572;28;20022;-80
2022/03/18 04:06:53;;;;;;;84.53;56.43;;;4.10;99.90;;;;;;4993457;28;20176;-80
2022/03/18 04:09:19;;;;;;;82.40;55.47;;;4.00;99.90;;;;;;4993367;28;20039;-80
2022/03/18 04:11:45;;;;;;;81.03;53.33;;;4.00;99.90;;;;;;4992557;28;20518;-80
2022/03/18 04:14:10;;;;;;;84.53;54.73;;;3.90;99.90;;;;;;4993548;28;20018;-80
2022/03/18 04:16:36;;;;;;;82.17;55.10;;;3.90;99.90;;;;;;4992848;28;20022;-80
2022/03/18 04:19:03;;;;;;;82.97;56.03;;;3.90;99.90;;;;;;4992636;28;20162;-80
2022/03/18 04:21:29;;;;;;;89.13;56.93;;;3.90;99.90;;;;;;4992411;28;20026;-81
2022/03/18 04:23:54;;;;;;;87.20;56.70;;;3.80;99.90;;;;;;4992968;28;20022;-80
2022/03/18 04:26:20;;;;;;;87.73;55.87;;;3.80;99.90;;;;;;4991265;28;20452;-80
2022/03/18 04:28:46;;;;;;;85.10;56.43;;;3.80;99.90;;;;;;4990998;28;20034;-80
2022/03/18 04:31:11;;;;;;;92.70;56.63;;;3.70;99.90;;;;;;4994900;28;20539;-80
2022/03/18 04:33:37;;;;;;;88.43;56.37;;;3.70;99.90;;;;;;4974790;28;20413;-80
2022/03/18 04:36:03;;;;;;;91.60;57.03;;;3.70;99.90;;;;;;4991649;28;20050;-80
2022/03/18 04:38:29;;;;;;;89.73;57.40;;;3.70;99.90;;;;;;4991828;28;20027;-80
2022/03/18 04:40:54;;;;;;;86.17;56.83;;;3.70;99.90;;;;;;4992137;28;20026;-80
2022/03/18 04:43:20;;;;;;;91.20;57.40;;;3.70;99.90;;;;;;4991610;28;20104;-80
2022/03/18 04:45:46;;;;;;;84.23;55.57;;;3.70;99.90;;;;;;4992465;28;20027;-81
2022/03/18 04:48:11;;;;;;;90.87;58.57;;;3.60;99.90;;;;;;4991825;28;20030;-81
2022/03/18 04:50:37;;;;;;;90.60;58.83;;;3.70;99.90;;;;;;4991971;28;20037;-81
2022/03/18 04:53:03;;;;;;;92.43;58.97;;;3.70;99.90;;;;;;4991754;28;20122;-81
2022/03/18 04:55:28;;;;;;;89.17;58.47;;;3.70;99.90;;;;;;4990585;28;20045;-80
2022/03/18 04:57:54;;;;;;;88.93;58.03;;;3.70;99.90;;;;;;4975102;28;20069;-80
2022/03/18 05:00:24;;;;;;;87.63;57.40;;;3.70;99.90;;;;;;4992487;28;20456;-80
2022/03/18 05:02:49;;;;;;;91.47;59.53;;;3.70;99.90;;;;;;4991939;28;20054;-80
2022/03/18 05:05:19;;;;;;;97.83;60.73;;;3.70;99.90;;;;;;4972925;28;20073;-81
2022/03/18 05:07:50;;;;;;;93.93;60.70;;;3.70;99.90;;;;;;4990539;28;20571;-81
2022/03/18 05:10:17;;;;;;;95.60;59.17;;;3.70;99.90;;;;;;4991049;28;20092;-79
2022/03/18 05:12:42;;;;;;;93.97;57.93;;;3.70;99.90;;;;;;4990390;28;20061;-79
2022/03/18 05:15:09;;;;;;;92.13;58.47;;;3.70;99.90;;;;;;4990838;28;20374;-79
2022/03/18 05:17:36;;;;;;;92.90;58.43;;;3.70;99.90;;;;;;4989423;28;20153;-79
2022/03/18 05:20:03;;;;;;;88.33;57.47;;;3.70;99.90;;;;;;4989164;28;20117;-79
2022/03/18 05:22:28;;;;;;;85.53;56.53;;;3.70;99.90;;;;;;4990456;28;20494;-79
2022/03/18 05:24:54;;;;;;;91.13;59.40;;;3.70;99.90;;;;;;4990000;28;20109;-79
2022/03/18 05:27:19;;;;;;;88.03;56.40;;;3.70;99.90;;;;;;4986538;28;20034;-79
2022/03/18 05:29:45;;;;;;;89.93;58.83;;;3.70;99.90;;;;;;4989394;28;20383;-79
2022/03/18 05:32:11;;;;;;;82.00;54.57;;;3.70;99.90;;;;;;4989892;28;20034;-79
2022/03/18 05:34:37;;;;;;;87.53;56.87;;;3.80;99.90;;;;;;4972252;28;20031;-79
2022/03/18 05:37:05;;;;;;;83.13;56.27;;;3.70;99.90;;;;;;4991511;28;20014;-79
2022/03/18 05:39:32;;;;;;;84.03;55.77;;;3.80;99.90;;;;;;4993308;28;20739;-79
2022/03/18 05:41:58;;;;;;;90.37;55.23;;;3.80;99.90;;;;;;4990564;28;20045;-79
2022/03/18 05:44:23;;;;;;;82.20;54.33;;;3.80;99.90;;;;;;4975747;28;20026;-79
2022/03/18 05:46:49;;;;;;;84.30;54.23;;;3.80;99.90;;;;;;4993328;28;20456;-79
2022/03/18 05:49:15;;;;;;;85.70;54.37;;;3.80;99.90;;;;;;4993331;28;20049;-79
2022/03/18 05:51:41;;;;;;;85.53;54.20;;;3.90;99.90;;;;;;4975389;28;20026;-79
2022/03/18 05:54:06;;;;;;;81.47;52.00;;;3.90;99.90;;;;;;4975148;28;20036;-79
2022/03/18 05:59:17;;;;;;;84.03;54.10;;;4.00;99.90;;;;;;4992973;28;20029;-79
2022/03/18 06:01:43;;;;;;;84.57;54.23;;;4.00;99.90;;;;;;4992954;28;20030;-80
2022/03/18 06:04:10;;;;;;;80.13;55.27;;;4.10;99.90;;;;;;4975943;28;20033;-80
2022/03/18 06:06:38;;;;;;;79.00;53.10;;;4.10;99.90;;;;;;4993106;28;20085;-79
2022/03/18 06:11:48;;;;;;;81.85;54.10;;;4.20;99.90;;;;;;4977022;28;20494;-76
2022/03/18 06:14:15;;;;;;;81.90;53.67;;;4.20;99.90;;;;;;4959229;28;20035;-76
2022/03/18 06:16:41;;;;;;;72.63;50.43;;;4.30;99.90;;;;;;4959284;28;20023;-76
2022/03/18 06:19:07;;;;;;;74.87;51.73;;;4.40;99.90;;;;;;4976522;28;20483;-76
2022/03/18 06:21:32;;;;;;;74.40;51.87;;;4.50;99.90;;;;;;4959126;28;20070;-76
2022/03/18 06:23:58;;;;;;;72.10;50.63;;;4.60;99.90;;;;;;4976439;28;20027;-76
2022/03/18 06:26:23;;;;;;;72.80;50.70;;;4.60;99.90;;;;;;4959178;28;20053;-77
2022/03/18 06:28:50;;;;;;;66.83;48.33;;;4.70;99.90;;;;;;4976197;28;20053;-77
2022/03/18 06:31:15;;;;;;;63.23;45.17;;;4.80;99.90;;;;;;4958719;28;20466;-76
2022/03/18 06:33:44;;;;;;;65.03;44.77;;;4.90;99.90;;;;;;4976217;28;20106;-76
2022/03/18 06:36:14;;;;;;;60.03;42.47;;;5.00;99.90;;;;;;4976337;28;20064;-76
2022/03/18 06:38:39;;;;;;;57.60;42.30;;;5.20;99.90;;;;;;4976155;28;20030;-76
2022/03/18 06:41:05;;;;;;;55.87;40.90;;;5.40;99.90;;;;;;4976352;28;20033;-76
2022/03/18 06:43:31;;;;;;;58.73;42.23;;;5.50;99.90;;;;;;4976176;28;20043;-76
2022/03/18 06:45:56;;;;;;;60.63;41.77;;;5.70;99.90;;;;;;4975932;28;20069;-76
2022/03/18 06:48:22;;;;;;;62.13;41.10;;;5.70;99.90;;;;;;4975037;28;20110;-76
2022/03/18 06:50:49;;;;;;;56.97;40.57;;;5.90;99.90;;;;;;4975881;28;20054;-76
2022/03/18 06:53:14;;;;;;;53.03;39.17;;;5.90;99.90;;;;;;4976167;28;20026;-76
2022/03/18 06:55:40;;;;;;;56.20;38.67;;;6.00;99.90;;;;;;4975770;28;20023;-76
2022/03/18 06:58:06;;;;;;;65.03;42.57;;;6.10;99.90;;;;;;4975729;28;20153;-76
2022/03/18 07:00:31;;;;;;;60.63;42.13;;;6.30;99.90;;;;;;4976275;28;20026;-76
2022/03/18 07:02:57;;;;;;;51.77;37.03;;;6.40;99.90;;;;;;4983887;28;20089;-76
2022/03/18 07:05:22;;;;;;;80.90;48.27;;;6.60;99.90;;;;;;4995011;28;20136;-76
2022/03/18 07:07:48;;;;;;;53.80;36.83;;;6.80;99.90;;;;;;4995216;28;20482;-76
2022/03/18 07:10:14;;;;;;;55.03;37.50;;;6.80;99.90;;;;;;4980594;28;20121;-76
2022/03/18 07:12:40;;;;;;;55.90;38.60;;;6.70;99.90;;;;;;4975758;28;20026;-76
2022/03/18 07:15:07;;;;;;;65.50;42.00;;;6.90;99.90;;;;;;4975708;28;20072;-76
2022/03/18 07:20:17;;;;;;;48.83;35.47;;;7.00;99.90;;;;;;4975805;28;20042;-76
2022/03/18 07:22:42;;;;;;;58.40;38.27;;;7.00;99.90;;;;;;4975402;28;20094;-76
2022/03/18 07:25:09;;;;;;;54.90;37.97;;;7.00;99.90;;;;;;4994310;28;20022;-76
2022/03/18 07:27:35;;;;;;;76.80;45.30;;;7.20;99.90;;;;;;4994973;28;20038;-76
2022/03/18 07:30:01;;;;;;;51.10;36.43;;;7.20;99.90;;;;;;4994746;28;20040;-76
2022/03/18 07:32:26;;;;;;;51.13;36.10;;;7.30;99.90;;;;;;4995057;28;20448;-76
2022/03/18 07:34:52;;;;;;;55.70;37.43;;;7.50;99.90;;;;;;4993205;28;20023;-76
2022/03/18 07:37:18;;;;;;;50.83;34.97;;;7.50;99.90;;;;;;4994801;28;20093;-76
2022/03/18 07:39:43;;;;;;;52.87;35.83;;;7.60;99.90;;;;;;4994445;28;20092;-76
2022/03/18 07:42:09;;;;;;;48.70;34.20;;;7.70;99.90;;;;;;4994862;28;20399;-76
2022/03/18 07:44:36;;;;;;;51.83;35.30;;;7.70;99.90;;;;;;4994371;28;20026;-76
2022/03/18 07:47:03;;;;;;;52.03;34.97;;;7.70;99.90;;;;;;4994414;28;20018;-76
2022/03/18 07:49:28;;;;;;;51.20;34.27;;;7.80;99.90;;;;;;4994333;28;20018;-76
2022/03/18 07:51:54;;;;;;;50.53;35.23;;;7.80;99.90;;;;;;4994109;28;20483;-76
2022/03/18 07:54:19;;;;;;;50.67;34.87;;;7.80;99.90;;;;;;4994113;28;20024;-76
2022/03/18 07:56:45;;;;;;;46.63;34.30;;;7.80;99.90;;;;;;4993919;28;20031;-76
2022/03/18 07:59:10;;;;;;;51.77;36.50;;;7.80;99.90;;;;;;4993955;28;20094;-76
2022/03/18 08:01:38;;;;;;;50.97;35.33;;;7.80;99.90;;;;;;4994106;28;20019;-76
2022/03/18 08:04:04;;;;;;;50.63;35.13;;;7.90;99.90;;;;;;4976515;28;20494;-75
2022/03/18 08:06:29;;;;;;;49.80;34.90;;;7.90;99.90;;;;;;4993972;28;20030;-76
2022/03/18 08:08:55;;;;;;;68.37;39.40;;;7.90;99.90;;;;;;4993985;28;20050;-76
2022/03/18 08:11:20;;;;;;;131.50;52.50;;;7.80;99.90;;;;;;4993782;28;20434;-75
2022/03/18 08:13:49;;;;;;;66.43;42.33;;;7.80;99.90;;;;;;4993860;28;20058;-75
2022/03/18 08:16:15;;;;;;;54.63;38.23;;;7.80;99.90;;;;;;4993886;28;20016;-75
2022/03/18 08:18:40;;;;;;;51.57;35.67;;;7.90;99.90;;;;;;4993805;28;20097;-76
2022/03/18 08:21:06;;;;;;;58.40;40.47;;;7.90;99.90;;;;;;4993426;28;20479;-76
2022/03/18 08:23:33;;;;;;;54.30;38.50;;;8.00;99.90;;;;;;4993531;28;20030;-76
2022/03/18 08:25:59;;;;;;;64.97;42.37;;;8.10;99.90;;;;;;4993622;28;20026;-76
2022/03/18 08:28:24;;;;;;;54.90;36.40;;;8.00;99.90;;;;;;4976073;28;20083;-76
2022/03/18 08:30:50;;;;;;;54.43;36.73;;;8.10;99.90;;;;;;4991548;28;20111;-76
2022/03/18 08:33:16;;;;;;;57.40;39.33;;;8.30;99.90;;;;;;4993516;28;20030;-76
2022/03/18 08:35:41;;;;;;;49.43;34.20;;;8.40;99.90;;;;;;4993449;28;20026;-76
2022/03/18 08:38:09;;;;;;;57.73;37.50;;;8.30;99.90;;;;;;4993513;28;20025;-77
2022/03/18 08:40:36;;;;;;;44.77;32.50;;;8.40;99.90;;;;;;4993464;28;20022;-76
2022/03/18 08:43:07;;;;;;;52.73;36.53;;;8.60;99.90;;;;;;4993391;28;20440;-76
2022/03/18 08:45:34;;;;;;;53.70;35.30;;;8.60;99.90;;;;;;4993368;28;20026;-77
2022/03/18 08:47:59;;;;;;;50.70;33.63;;;8.60;99.90;;;;;;4993214;28;20031;-78
2022/03/18 08:50:25;;;;;;;52.93;35.83;;;8.70;99.90;;;;;;4993165;28;20022;-78
2022/03/18 08:52:53;;;;;;;64.30;39.20;;;8.80;99.90;;;;;;4975919;28;20085;-78
2022/03/18 08:55:20;;;;;;;54.07;34.40;;;8.90;99.90;;;;;;4991996;28;20109;-78
2022/03/18 08:57:46;;;;;;;42.73;29.90;;;9.00;99.90;;;;;;4993343;28;20437;-78
2022/03/18 09:00:15;;;;;;;45.47;31.97;;;9.20;99.90;;;;;;4993364;28;20062;-78
2022/03/18 09:02:41;;;;;;;44.93;32.13;;;9.50;99.90;;;;;;4993246;28;20029;-78
2022/03/18 09:05:08;;;;;;;46.63;31.97;;;9.50;99.90;;;;;;4993419;28;20034;-77
2022/03/18 09:07:34;;;;;;;57.80;39.00;;;9.70;99.90;;;;;;4993274;28;20026;-77
2022/03/18 09:10:01;;;;;;;41.30;30.10;;;9.80;99.90;;;;;;4975418;28;20398;-77
2022/03/18 09:12:27;;;;;;;44.27;31.97;;;9.90;99.90;;;;;;4977925;28;20022;-77
2022/03/18 09:14:52;;;;;;;38.47;28.40;;;9.90;99.90;;;;;;4996881;28;20023;-77
2022/03/18 09:17:19;;;;;;;38.20;28.37;;;9.90;99.90;;;;;;4996658;28;20360;-75
2022/03/18 09:19:44;;;;;;;43.80;29.90;;;10.00;99.90;;;;;;4996696;28;20030;-78
2022/03/18 09:22:10;;;;;;;40.27;29.50;;;9.90;99.90;;;;;;4996935;28;20034;-78
2022/03/18 09:24:38;;;;;;;39.60;27.33;;;10.00;99.90;;;;;;4996603;28;20022;-78
2022/03/18 09:27:04;;;;;;;46.47;29.83;;;10.30;99.90;;;;;;4996800;28;20090;-77
2022/03/18 09:29:31;;;;;;;40.13;28.37;;;10.30;99.90;;;;;;4997059;28;20113;-77
2022/03/18 09:31:57;;;;;;;39.03;27.87;;;10.40;99.90;;;;;;4996475;28;20032;-78
2022/03/18 09:34:24;;;;;;;39.60;27.87;;;10.50;99.90;;;;;;4996877;28;20460;-78
2022/03/18 09:36:55;;;;;;;42.90;28.20;;;10.40;99.90;;;;;;4995142;28;20018;-75
2022/03/18 09:39:25;;;;;;;44.37;29.90;;;10.40;99.90;;;;;;4978777;28;20053;-78
2022/03/18 09:41:51;;;;;;;44.60;28.87;;;10.60;99.90;;;;;;4996368;28;20026;-75
2022/03/18 09:44:17;;;;;;;38.07;27.13;;;10.70;99.90;;;;;;4978837;28;20030;-76
2022/03/18 09:46:47;;;;;;;40.93;28.20;;;10.80;99.90;;;;;;4996248;28;20471;-75
2022/03/18 09:49:14;;;;;;;39.47;26.87;;;10.70;99.90;;;;;;4996102;28;20076;-76
2022/03/18 09:51:42;;;;;;;37.97;27.00;;;10.60;99.90;;;;;;4996124;28;20026;-77
2022/03/18 09:54:09;;;;;;;39.03;27.63;;;10.60;99.90;;;;;;4996161;28;20510;-77
2022/03/18 09:56:35;;;;;;;38.63;29.00;;;10.60;99.90;;;;;;4996143;28;20050;-77
2022/03/18 09:59:01;;;;;;;40.70;28.17;;;10.70;99.90;;;;;;4978625;28;20057;-77
2022/03/18 10:01:26;;;;;;;35.00;25.20;;;10.80;99.90;;;;;;4996008;28;20037;-76
2022/03/18 10:03:52;;;;;;;39.17;26.30;;;10.90;99.90;;;;;;4995969;28;20030;-76
2022/03/18 10:06:27;;;;;;;37.23;26.97;;;11.00;99.90;;;;;;4995961;28;20109;-76
2022/03/18 10:08:53;;;;;;;32.83;25.53;;;11.20;99.90;;;;;;4995383;28;20054;-76
2022/03/18 10:11:25;;;;;;;37.10;26.10;;;11.50;99.90;;;;;;4995486;28;20463;-76
2022/03/18 10:14:04;;;;;;;35.07;25.83;;;11.80;99.90;;;;;;4995716;28;20026;-76
2022/03/18 10:16:45;;;;;;;35.42;25.45;;;11.80;99.90;;;;;;4995711;28;20447;-76
2022/03/18 10:19:22;;;;;;;33.90;25.77;;;12.10;99.90;;;;;;4994294;28;20062;-76
2022/03/18 10:22:02;;;;;;;33.90;24.40;;;12.10;99.90;;;;;;4995475;28;20467;-76
2022/03/18 10:24:36;;;;;;;32.95;24.92;;;12.50;99.90;;;;;;4994637;28;20070;-76
2022/03/18 10:27:20;;;;;;;32.92;25.75;;;12.80;99.90;;;;;;4995815;28;20096;-76
2022/03/18 10:29:53;;;;;;;34.92;23.58;;;12.90;99.90;;;;;;4995745;28;20056;-75
2022/03/18 10:32:20;;;;;;;33.38;23.63;;;12.90;99.90;;;;;;4996028;28;20034;-75
2022/03/18 10:37:46;;;;;;;32.95;22.52;;;13.10;99.90;;;;;;4996277;28;20114;-76
2022/03/18 10:40:13;;;;;;;28.55;21.60;;;13.30;99.90;;;;;;4978094;28;20073;-76
2022/03/18 10:42:39;;;;;;;34.50;22.75;;;13.30;99.90;;;;;;4994388;28;20022;-76
2022/03/18 10:45:06;;;;;;;28.65;21.17;;;13.10;99.90;;;;;;4978010;28;20029;-76
2022/03/18 10:47:36;;;;;;;29.02;20.60;;;13.00;99.90;;;;;;4995331;28;20018;-76
2022/03/18 10:50:11;;;;;;;29.95;21.90;;;13.00;99.90;;;;;;4995056;28;20026;-76
2022/03/18 10:52:45;;;;;;;28.58;20.92;;;13.30;99.90;;;;;;4995202;28;20022;-76
2022/03/18 10:55:19;;;;;;;30.25;21.88;;;13.40;99.90;;;;;;4977632;28;20082;-75
2022/03/18 10:58:11;;;;;;;32.75;23.23;;;13.40;99.90;;;;;;4995451;28;20061;-76
2022/03/18 11:00:40;;;;;;;31.45;21.70;;;13.20;99.90;;;;;;4995242;28;20027;-76
2022/03/18 11:03:06;;;;;;;27.52;20.10;;;13.00;99.90;;;;;;4978095;28;20802;-76
2022/03/18 11:05:37;;;;;;;30.88;22.02;;;12.70;99.70;;;;;;4994987;28;20472;-76
2022/03/18 11:08:05;;;;;;;32.00;22.58;;;12.70;99.90;;;;;;4994731;28;20057;-76
2022/03/18 11:13:23;;;;;;;32.55;23.35;;;12.40;99.90;;;;;;4995127;28;20033;-76
2022/03/18 11:15:50;;;;;;;33.03;24.23;;;12.20;99.90;;;;;;4977547;28;20026;-76
2022/03/18 11:18:16;;;;;;;33.70;23.70;;;12.00;99.90;;;;;;4977636;28;20460;-76
2022/03/18 11:20:43;;;;;;;32.90;23.63;;;12.10;99.90;;;;;;4995084;28;20088;-76
2022/03/18 11:23:17;;;;;;;33.38;23.10;;;12.20;99.90;;;;;;4995353;28;20093;-76
2022/03/18 11:25:46;;;;;;;30.42;22.85;;;12.20;99.90;;;;;;4995066;28;20042;-76
2022/03/18 11:28:16;;;;;;;32.55;22.80;;;12.20;99.90;;;;;;4995023;28;20027;-76
2022/03/18 11:30:44;;;;;;;32.97;22.88;;;12.40;99.90;;;;;;4977604;28;20046;-76
2022/03/18 11:33:09;;;;;;;34.63;22.80;;;12.50;99.90;;;;;;4994927;28;20152;-76
2022/03/18 11:35:50;;;;;;;30.98;22.05;;;12.60;99.90;;;;;;4982293;28;20077;-76
2022/03/18 11:38:25;;;;;;;30.42;22.08;;;13.00;99.90;;;;;;4977661;28;20153;-76
2022/03/18 11:40:58;;;;;;;;;;;13.20;99.90;;;;;;4995318;28;20101;-76
2022/03/18 11:43:42;;;;;;;30.30;21.50;;;13.10;99.90;;;;;;4994820;28;19906;-76
2022/03/18 11:46:13;;;;;;;32.08;23.50;;;13.40;99.90;;;;;;4994805;28;20038;-76
2022/03/18 11:48:49;;;;;;;33.83;22.55;;;13.50;99.90;;;;;;4994400;28;20383;-74
2022/03/18 11:51:37;;;;;;;28.42;21.08;;;13.70;99.90;;;;;;4994046;28;20022;-75
2022/03/18 11:54:15;;;;;;;29.70;20.88;;;13.80;99.90;;;;;;4975037;28;20045;-76
2022/03/18 11:56:47;;;;;;;28.33;21.52;;;13.90;98.50;;;;;;4992711;28;20029;-75
2022/03/18 11:59:25;;;;;;;27.83;21.58;;;14.30;97.80;;;;;;4974740;28;20443;-75
2022/03/18 12:01:54;;;;;;;29.92;21.80;;;14.10;96.60;;;;;;4975289;28;20374;-75
2022/03/18 12:04:44;;;;;;;28.52;21.85;;;14.20;96.90;;;;;;4992360;28;20034;-75
2022/03/18 12:07:24;;;;;;;31.20;23.25;;;14.30;98.20;;;;;;4977794;28;20117;-76
2022/03/18 12:10:06;;;;;;;31.17;23.55;;;14.40;97.60;;;;;;4973607;28;20043;-76
2022/03/18 12:12:39;;;;;;;29.83;22.33;;;14.40;97.60;;;;;;4972705;28;20208;-75
2022/03/18 12:15:12;;;;;;;30.27;23.42;;;14.50;96.70;;;;;;4971569;28;20030;-69
2022/03/18 12:17:46;;;;;;;29.38;21.45;;;14.40;98.10;;;;;;4969477;28;20031;-69
2022/03/18 12:20:15;;;;;;;29.05;20.80;;;14.20;96.70;;;;;;4968927;28;20158;-69
2022/03/18 12:22:42;;;;;;;30.08;22.20;;;14.30;96.00;;;;;;4969191;28;20033;-69
2022/03/18 12:25:08;;;;;;;28.83;19.83;;;14.10;94.90;;;;;;4969252;28;20039;-69
2022/03/18 12:27:36;;;;;;;29.20;19.77;;;13.90;94.80;;;;;;4976047;28;20030;-68
2022/03/18 12:30:14;;;;;;;26.05;17.90;;;13.70;95.80;;;;;;4988037;28;20026;-67
2022/03/18 12:32:48;;;;;;;26.55;18.52;;;13.70;95.40;;;;;;4990684;28;20022;-67
2022/03/18 12:35:16;;;;;;;25.63;18.90;;;13.50;94.70;;;;;;4990930;28;20030;-67
2022/03/18 12:37:45;;;;;;;27.95;18.63;;;13.30;95.30;;;;;;4990804;28;20414;-67
2022/03/18 12:40:13;;;;;;;28.08;18.30;;;13.30;96.00;;;;;;4990564;28;20054;-67
2022/03/18 12:42:45;;;;;;;25.48;18.35;;;13.50;95.60;;;;;;4990895;28;20040;-67
2022/03/18 12:45:12;;;;;;;27.40;18.67;;;13.50;94.60;;;;;;4990770;28;20034;-68
2022/03/18 12:47:38;;;;;;;28.10;19.85;;;13.50;94.70;;;;;;4994318;28;20045;-67
2022/03/18 12:50:04;;;;;;;25.65;18.77;;;13.70;94.50;;;;;;4995122;28;20361;-67
2022/03/18 12:52:30;;;;;;;28.83;19.20;;;13.60;94.70;;;;;;4995085;28;20040;-67
2022/03/18 12:55:09;;;;;;;27.27;20.20;;;13.50;94.40;;;;;;4994506;28;20531;-67
2022/03/18 12:57:38;;;;;;;26.63;19.55;;;13.30;95.00;;;;;;4994534;28;20072;-81